sensor_id;sensor_type;location;lat;lon;timestamp;temperature;humidity
15625;DHT22;7912;51.376;6.126;2023-01-19T00:01:11;4.50;99.90
15625;DHT22;7912;51.376;6.126;2023-01-19T00:03:45;4.50;99.90
15625;DHT22;7912;51.376;6.126;2023-01-19T00:06:13;4.50;99.90
15625;DHT22;7912;51.376;6.126;2023-01-19T00:08:41;4.50;99.90
15625;DHT22;7912;51.376;6.126;2023-01-19T00:11:15;4.50;99.90
15625;DHT22;7912;51.376;6.126;2023-01-19T00:13:46;4.50;99.90
15625;DHT22;7912;51.376;6.126;2023-01-19T00:16:18;4.50;99.90
15625;DHT22;7912;51.376;6.126;2023-01-19T00:18:51;4.60;99.90
15625;DHT22;7912;51.376;6.126;2023-01-19T00:21:19;4.60;99.90
15625;DHT22;7912;51.376;6.126;2023-01-19T00:23:47;4.60;99.90
15625;DHT22;7912;51.376;6.126;2023-01-19T00:26:17;4.60;99.90
15625;DHT22;7912;51.376;6.126;2023-01-19T00:28:45;4.70;99.90
15625;DHT22;7912;51.376;6.126;2023-01-19T00:31:15;4.70;99.90
15625;DHT22;7912;51.376;6.126;2023-01-19T00:33:46;4.70;99.90
15625;DHT22;7912;51.376;6.126;2023-01-19T00:36:15;4.80;99.90
15625;DHT22;7912;51.376;6.126;2023-01-19T00:38:42;4.80;99.90
15625;DHT22;7912;51.376;6.126;2023-01-19T00:41:10;4.80;99.90
15625;DHT22;7912;51.376;6.126;2023-01-19T00:43:37;4.80;99.90
15625;DHT22;7912;51.376;6.126;2023-01-19T00:46:05;4.80;99.90
15625;DHT22;7912;51.376;6.126;2023-01-19T00:48:33;4.90;99.90
15625;DHT22;7912;51.376;6.126;2023-01-19T00:51:01;4.90;99.90
15625;DHT22;7912;51.376;6.126;2023-01-19T00:53:28;4.90;99.90
15625;DHT22;7912;51.376;6.126;2023-01-19T00:55:58;4.90;99.90
15625;DHT22;7912;51.376;6.126;2023-01-19T00:58:27;4.90;99.90
15625;DHT22;7912;51.376;6.126;2023-01-19T01:00:54;4.90;99.90
15625;DHT22;7912;51.376;6.126;2023-01-19T01:03:23;4.90;99.90
15625;DHT22;7912;51.376;6.126;2023-01-19T01:05:54;4.90;99.90
15625;DHT22;7912;51.376;6.126;2023-01-19T01:08:21;4.90;99.90
15625;DHT22;7912;51.376;6.126;2023-01-19T01:10:49;5.00;99.90
15625;DHT22;7912;51.376;6.126;2023-01-19T01:13:17;4.90;99.90
15625;DHT22;7912;51.376;6.126;2023-01-19T01:15:51;5.00;99.90
15625;DHT22;7912;51.376;6.126;2023-01-19T01:18:22;5.00;99.90
15625;DHT22;7912;51.376;6.126;2023-01-19T01:20:49;5.00;99.90
15625;DHT22;7912;51.376;6.126;2023-01-19T01:23:17;5.00;99.90
15625;DHT22;7912;51.376;6.126;2023-01-19T01:25:48;5.00;99.90
15625;DHT22;7912;51.376;6.126;2023-01-19T01:28:19;5.00;99.90
15625;DHT22;7912;51.376;6.126;2023-01-19T01:30:55;5.00;99.90
15625;DHT22;7912;51.376;6.126;2023-01-19T01:33:26;5.10;99.90
15625;DHT22;7912;51.376;6.126;2023-01-19T01:36:08;5.10;99.90
15625;DHT22;7912;51.376;6.126;2023-01-19T01:38:40;5.10;99.90
15625;DHT22;7912;51.376;6.126;2023-01-19T01:41:12;5.10;99.90
15625;DHT22;7912;51.376;6.126;2023-01-19T01:43:49;5.10;99.90
15625;DHT22;7912;51.376;6.126;2023-01-19T01:46:29;5.10;99.90
15625;DHT22;7912;51.376;6.126;2023-01-19T01:49:07;5.10;99.90
15625;DHT22;7912;51.376;6.126;2023-01-19T01:51:51;5.10;99.90
15625;DHT22;7912;51.376;6.126;2023-01-19T01:54:26;5.10;99.90
15625;DHT22;7912;51.376;6.126;2023-01-19T01:57:03;5.00;99.90
15625;DHT22;7912;51.376;6.126;2023-01-19T01:59:44;5.00;99.90
15625;DHT22;7912;51.376;6.126;2023-01-19T02:02:24;5.00;99.90
15625;DHT22;7912;51.376;6.126;2023-01-19T02:05:31;4.90;99.90
15625;DHT22;7912;51.376;6.126;2023-01-19T02:08:15;4.90;99.90
15625;DHT22;7912;51.376;6.126;2023-01-19T02:11:21;4.90;99.90
15625;DHT22;7912;51.376;6.126;2023-01-19T02:14:13;4.80;99.90
15625;DHT22;7912;51.376;6.126;2023-01-19T02:16:49;4.80;99.90
15625;DHT22;7912;51.376;6.126;2023-01-19T02:19:46;4.80;99.90
15625;DHT22;7912;51.376;6.126;2023-01-19T02:22:32;4.80;99.90
15625;DHT22;7912;51.376;6.126;2023-01-19T02:25:07;4.80;99.90
15625;DHT22;7912;51.376;6.126;2023-01-19T02:27:38;4.80;99.90
15625;DHT22;7912;51.376;6.126;2023-01-19T02:30:08;4.80;99.90
15625;DHT22;7912;51.376;6.126;2023-01-19T02:32:38;4.80;99.90
15625;DHT22;7912;51.376;6.126;2023-01-19T02:35:11;4.80;99.90
15625;DHT22;7912;51.376;6.126;2023-01-19T02:37:44;4.80;99.90
15625;DHT22;7912;51.376;6.126;2023-01-19T02:40:18;4.80;99.90
15625;DHT22;7912;51.376;6.126;2023-01-19T02:42:56;4.80;99.90
15625;DHT22;7912;51.376;6.126;2023-01-19T02:45:30;4.80;99.90
15625;DHT22;7912;51.376;6.126;2023-01-19T02:48:01;4.80;99.90
15625;DHT22;7912;51.376;6.126;2023-01-19T02:50:43;4.80;99.90
15625;DHT22;7912;51.376;6.126;2023-01-19T03:02:17;4.90;99.90
15625;DHT22;7912;51.376;6.126;2023-01-19T03:11:17;4.90;99.90
15625;DHT22;7912;51.376;6.126;2023-01-19T03:16:35;4.90;99.90
15625;DHT22;7912;51.376;6.126;2023-01-19T03:19:08;4.90;99.90
15625;DHT22;7912;51.376;6.126;2023-01-19T03:21:58;4.90;99.90
15625;DHT22;7912;51.376;6.126;2023-01-19T03:24:33;4.80;99.90
15625;DHT22;7912;51.376;6.126;2023-01-19T03:27:31;4.80;99.90
15625;DHT22;7912;51.376;6.126;2023-01-19T03:38:15;4.70;99.90
15625;DHT22;7912;51.376;6.126;2023-01-19T03:40:59;4.70;99.90
15625;DHT22;7912;51.376;6.126;2023-01-19T03:43:35;4.70;99.90
15625;DHT22;7912;51.376;6.126;2023-01-19T03:46:11;4.60;99.90
15625;DHT22;7912;51.376;6.126;2023-01-19T03:48:51;4.60;99.90
15625;DHT22;7912;51.376;6.126;2023-01-19T04:04:52;4.40;99.90
15625;DHT22;7912;51.376;6.126;2023-01-19T04:07:20;4.30;99.90
15625;DHT22;7912;51.376;6.126;2023-01-19T04:09:48;4.30;99.90
15625;DHT22;7912;51.376;6.126;2023-01-19T04:12:15;4.30;99.90
15625;DHT22;7912;51.376;6.126;2023-01-19T04:14:43;4.30;99.90
15625;DHT22;7912;51.376;6.126;2023-01-19T04:17:10;4.20;99.90
15625;DHT22;7912;51.376;6.126;2023-01-19T04:19:39;4.20;99.90
15625;DHT22;7912;51.376;6.126;2023-01-19T04:22:07;4.20;99.90
15625;DHT22;7912;51.376;6.126;2023-01-19T04:24:34;4.20;99.90
15625;DHT22;7912;51.376;6.126;2023-01-19T04:27:02;4.20;99.90
15625;DHT22;7912;51.376;6.126;2023-01-19T04:29:30;4.20;99.90
15625;DHT22;7912;51.376;6.126;2023-01-19T04:31:57;4.20;99.90
15625;DHT22;7912;51.376;6.126;2023-01-19T04:34:25;4.10;99.90
15625;DHT22;7912;51.376;6.126;2023-01-19T04:36:53;4.10;99.90
15625;DHT22;7912;51.376;6.126;2023-01-19T04:39:21;4.10;99.90
15625;DHT22;7912;51.376;6.126;2023-01-19T04:41:49;4.10;99.90
15625;DHT22;7912;51.376;6.126;2023-01-19T04:44:18;4.10;99.90
15625;DHT22;7912;51.376;6.126;2023-01-19T04:46:45;4.10;99.90
15625;DHT22;7912;51.376;6.126;2023-01-19T04:49:14;4.10;99.90
15625;DHT22;7912;51.376;6.126;2023-01-19T04:51:42;4.10;99.90
15625;DHT22;7912;51.376;6.126;2023-01-19T04:54:10;4.10;99.90
15625;DHT22;7912;51.376;6.126;2023-01-19T04:56:37;4.10;99.90
15625;DHT22;7912;51.376;6.126;2023-01-19T04:59:06;4.00;99.90
15625;DHT22;7912;51.376;6.126;2023-01-19T05:01:34;4.10;99.90
15625;DHT22;7912;51.376;6.126;2023-01-19T05:04:03;4.10;99.90
15625;DHT22;7912;51.376;6.126;2023-01-19T05:06:33;4.00;99.90
15625;DHT22;7912;51.376;6.126;2023-01-19T05:09:01;4.10;99.90
15625;DHT22;7912;51.376;6.126;2023-01-19T05:11:29;4.00;99.90
15625;DHT22;7912;51.376;6.126;2023-01-19T05:13:56;4.00;99.90
15625;DHT22;7912;51.376;6.126;2023-01-19T05:16:24;4.00;99.90
15625;DHT22;7912;51.376;6.126;2023-01-19T05:18:51;4.10;99.90
15625;DHT22;7912;51.376;6.126;2023-01-19T05:21:19;4.10;99.90
15625;DHT22;7912;51.376;6.126;2023-01-19T05:23:46;4.00;99.90
15625;DHT22;7912;51.376;6.126;2023-01-19T05:26:15;4.10;99.90
15625;DHT22;7912;51.376;6.126;2023-01-19T05:28:43;4.10;99.90
15625;DHT22;7912;51.376;6.126;2023-01-19T05:31:11;4.00;99.90
15625;DHT22;7912;51.376;6.126;2023-01-19T05:33:54;4.00;99.90
15625;DHT22;7912;51.376;6.126;2023-01-19T05:36:41;4.00;99.90
15625;DHT22;7912;51.376;6.126;2023-01-19T05:39:14;4.00;99.90
15625;DHT22;7912;51.376;6.126;2023-01-19T11:02:19;5.70;99.90
15625;DHT22;7912;51.376;6.126;2023-01-19T11:04:51;5.80;99.90
15625;DHT22;7912;51.376;6.126;2023-01-19T11:07:28;5.90;99.90
15625;DHT22;7912;51.376;6.126;2023-01-19T11:15:57;6.10;99.90
15625;DHT22;7912;51.376;6.126;2023-01-19T11:21:07;6.30;99.90
15625;DHT22;7912;51.376;6.126;2023-01-19T11:23:39;6.40;99.90
15625;DHT22;7912;51.376;6.126;2023-01-19T11:26:23;6.50;99.90
15625;DHT22;7912;51.376;6.126;2023-01-19T11:29:16;6.60;99.90
15625;DHT22;7912;51.376;6.126;2023-01-19T11:31:49;6.70;99.90
15625;DHT22;7912;51.376;6.126;2023-01-19T11:34:32;6.70;99.90
15625;DHT22;7912;51.376;6.126;2023-01-19T11:39:58;6.80;99.90
15625;DHT22;7912;51.376;6.126;2023-01-19T11:42:31;6.80;99.90
15625;DHT22;7912;51.376;6.126;2023-01-19T11:45:10;6.90;99.90
15625;DHT22;7912;51.376;6.126;2023-01-19T11:47:44;6.90;99.90
15625;DHT22;7912;51.376;6.126;2023-01-19T11:50:22;6.90;99.90
15625;DHT22;7912;51.376;6.126;2023-01-19T11:56:04;6.90;99.90
15625;DHT22;7912;51.376;6.126;2023-01-19T11:58:38;7.00;99.90
15625;DHT22;7912;51.376;6.126;2023-01-19T12:01:30;7.10;99.90
15625;DHT22;7912;51.376;6.126;2023-01-19T12:06:38;7.30;99.90
15625;DHT22;7912;51.376;6.126;2023-01-19T12:12:03;7.40;99.90
15625;DHT22;7912;51.376;6.126;2023-01-19T12:14:39;7.50;99.90
15625;DHT22;7912;51.376;6.126;2023-01-19T12:17:30;7.50;99.90
15625;DHT22;7912;51.376;6.126;2023-01-19T12:28:46;7.70;99.90
15625;DHT22;7912;51.376;6.126;2023-01-19T12:31:20;7.70;99.90
15625;DHT22;7912;51.376;6.126;2023-01-19T12:33:50;7.80;99.90
15625;DHT22;7912;51.376;6.126;2023-01-19T12:41:36;7.80;99.90
15625;DHT22;7912;51.376;6.126;2023-01-19T12:46:42;7.90;99.90
15625;DHT22;7912;51.376;6.126;2023-01-19T12:52:16;8.00;99.90
15625;DHT22;7912;51.376;6.126;2023-01-19T13:00:33;7.90;99.90
15625;DHT22;7912;51.376;6.126;2023-01-19T13:18:44;7.60;99.90
15625;DHT22;7912;51.376;6.126;2023-01-19T13:25:57;7.60;99.90
15625;DHT22;7912;51.376;6.126;2023-01-19T13:28:37;7.70;99.90
15625;DHT22;7912;51.376;6.126;2023-01-19T13:31:07;7.70;99.90
15625;DHT22;7912;51.376;6.126;2023-01-19T13:33:57;7.70;99.90
15625;DHT22;7912;51.376;6.126;2023-01-19T13:36:36;7.70;99.90
15625;DHT22;7912;51.376;6.126;2023-01-19T13:39:26;7.70;99.90
15625;DHT22;7912;51.376;6.126;2023-01-19T13:42:00;7.70;99.90
15625;DHT22;7912;51.376;6.126;2023-01-19T13:44:40;7.70;99.90
15625;DHT22;7912;51.376;6.126;2023-01-19T13:47:20;7.70;99.90
15625;DHT22;7912;51.376;6.126;2023-01-19T13:49:55;7.80;99.90
15625;DHT22;7912;51.376;6.126;2023-01-19T13:52:27;7.80;99.90
15625;DHT22;7912;51.376;6.126;2023-01-19T13:55:01;7.90;99.90
15625;DHT22;7912;51.376;6.126;2023-01-19T13:57:42;7.90;99.90
15625;DHT22;7912;51.376;6.126;2023-01-19T14:00:21;7.90;99.90
15625;DHT22;7912;51.376;6.126;2023-01-19T14:03:00;8.00;99.90
15625;DHT22;7912;51.376;6.126;2023-01-19T14:05:51;8.10;99.90
15625;DHT22;7912;51.376;6.126;2023-01-19T14:08:22;8.10;99.90
15625;DHT22;7912;51.376;6.126;2023-01-19T14:17:29;8.20;99.90
15625;DHT22;7912;51.376;6.126;2023-01-19T14:20:01;8.10;99.90
15625;DHT22;7912;51.376;6.126;2023-01-19T14:22:43;8.10;99.90
15625;DHT22;7912;51.376;6.126;2023-01-19T14:25:32;8.00;99.90
15625;DHT22;7912;51.376;6.126;2023-01-19T14:29:03;7.90;99.90
15625;DHT22;7912;51.376;6.126;2023-01-19T14:33:53;7.70;99.90
15625;DHT22;7912;51.376;6.126;2023-01-19T14:36:43;7.60;99.90
15625;DHT22;7912;51.376;6.126;2023-01-19T14:39:20;7.60;99.90
15625;DHT22;7912;51.376;6.126;2023-01-19T14:41:51;7.50;99.90
15625;DHT22;7912;51.376;6.126;2023-01-19T14:44:43;7.50;99.90
15625;DHT22;7912;51.376;6.126;2023-01-19T14:47:51;7.40;99.90
15625;DHT22;7912;51.376;6.126;2023-01-19T14:50:25;7.30;99.90
15625;DHT22;7912;51.376;6.126;2023-01-19T14:57:13;7.20;99.90
15625;DHT22;7912;51.376;6.126;2023-01-19T14:59:41;7.20;99.90
15625;DHT22;7912;51.376;6.126;2023-01-19T15:02:20;7.20;99.90
15625;DHT22;7912;51.376;6.126;2023-01-19T15:04:48;7.10;99.90
15625;DHT22;7912;51.376;6.126;2023-01-19T15:07:24;7.10;99.90
15625;DHT22;7912;51.376;6.126;2023-01-19T15:09:54;7.00;99.90
15625;DHT22;7912;51.376;6.126;2023-01-19T15:12:26;7.00;99.90
15625;DHT22;7912;51.376;6.126;2023-01-19T15:14:58;6.90;99.90
15625;DHT22;7912;51.376;6.126;2023-01-19T15:17:27;6.80;99.90
15625;DHT22;7912;51.376;6.126;2023-01-19T15:19:56;6.70;99.90
15625;DHT22;7912;51.376;6.126;2023-01-19T15:22:25;6.70;99.90
15625;DHT22;7912;51.376;6.126;2023-01-19T15:24:57;6.60;99.90
15625;DHT22;7912;51.376;6.126;2023-01-19T15:39:29;6.20;99.90
15625;DHT22;7912;51.376;6.126;2023-01-19T15:41:56;6.10;99.90
15625;DHT22;7912;51.376;6.126;2023-01-19T15:44:25;6.00;99.90
15625;DHT22;7912;51.376;6.126;2023-01-19T15:46:53;5.90;99.90
15625;DHT22;7912;51.376;6.126;2023-01-19T15:49:23;5.80;99.90
15625;DHT22;7912;51.376;6.126;2023-01-19T15:51:51;5.70;99.90
15625;DHT22;7912;51.376;6.126;2023-01-19T15:54:22;5.70;99.90
15625;DHT22;7912;51.376;6.126;2023-01-19T15:56:51;5.70;99.90
15625;DHT22;7912;51.376;6.126;2023-01-19T15:59:19;5.60;99.90
15625;DHT22;7912;51.376;6.126;2023-01-19T16:01:47;5.60;99.90
15625;DHT22;7912;51.376;6.126;2023-01-19T16:04:17;5.60;99.90
15625;DHT22;7912;51.376;6.126;2023-01-19T16:06:45;5.60;99.90
15625;DHT22;7912;51.376;6.126;2023-01-19T16:09:13;5.60;99.90
15625;DHT22;7912;51.376;6.126;2023-01-19T16:11:44;5.60;99.90
15625;DHT22;7912;51.376;6.126;2023-01-19T16:14:17;5.60;99.90
15625;DHT22;7912;51.376;6.126;2023-01-19T16:16:45;5.60;99.90
15625;DHT22;7912;51.376;6.126;2023-01-19T16:19:13;5.60;99.90
15625;DHT22;7912;51.376;6.126;2023-01-19T16:21:43;5.60;99.90
15625;DHT22;7912;51.376;6.126;2023-01-19T16:24:11;5.60;99.90
15625;DHT22;7912;51.376;6.126;2023-01-19T16:26:38;5.60;99.90
15625;DHT22;7912;51.376;6.126;2023-01-19T16:29:07;5.60;99.90
15625;DHT22;7912;51.376;6.126;2023-01-19T16:31:40;5.60;99.90
15625;DHT22;7912;51.376;6.126;2023-01-19T16:34:10;5.70;99.90
15625;DHT22;7912;51.376;6.126;2023-01-19T16:36:40;5.60;99.90
15625;DHT22;7912;51.376;6.126;2023-01-19T16:39:12;5.60;99.90
15625;DHT22;7912;51.376;6.126;2023-01-19T16:41:41;5.60;99.90
15625;DHT22;7912;51.376;6.126;2023-01-19T16:44:11;5.60;99.90
15625;DHT22;7912;51.376;6.126;2023-01-19T16:46:43;5.60;99.90
15625;DHT22;7912;51.376;6.126;2023-01-19T16:49:17;5.60;99.90
15625;DHT22;7912;51.376;6.126;2023-01-19T16:51:47;5.50;99.90
15625;DHT22;7912;51.376;6.126;2023-01-19T16:54:22;5.50;99.90
15625;DHT22;7912;51.376;6.126;2023-01-19T16:56:53;5.40;99.90
15625;DHT22;7912;51.376;6.126;2023-01-19T16:59:25;5.40;99.90
15625;DHT22;7912;51.376;6.126;2023-01-19T17:01:56;5.30;99.90
15625;DHT22;7912;51.376;6.126;2023-01-19T17:04:24;5.20;99.90
15625;DHT22;7912;51.376;6.126;2023-01-19T17:06:54;5.20;99.90
15625;DHT22;7912;51.376;6.126;2023-01-19T17:09:22;5.10;99.90
15625;DHT22;7912;51.376;6.126;2023-01-19T17:11:50;5.10;99.90
15625;DHT22;7912;51.376;6.126;2023-01-19T17:14:20;5.00;99.90
15625;DHT22;7912;51.376;6.126;2023-01-19T17:16:50;5.00;99.90
15625;DHT22;7912;51.376;6.126;2023-01-19T17:19:20;4.90;99.90
15625;DHT22;7912;51.376;6.126;2023-01-19T17:21:52;4.90;99.90
15625;DHT22;7912;51.376;6.126;2023-01-19T17:24:23;4.80;99.90
15625;DHT22;7912;51.376;6.126;2023-01-19T17:26:51;4.80;99.90
15625;DHT22;7912;51.376;6.126;2023-01-19T17:29:19;4.80;99.90
15625;DHT22;7912;51.376;6.126;2023-01-19T17:31:49;4.70;99.90
15625;DHT22;7912;51.376;6.126;2023-01-19T17:34:17;4.70;99.90
15625;DHT22;7912;51.376;6.126;2023-01-19T17:36:45;4.60;99.90
15625;DHT22;7912;51.376;6.126;2023-01-19T17:39:12;4.60;99.90
15625;DHT22;7912;51.376;6.126;2023-01-19T17:41:40;4.50;99.90
15625;DHT22;7912;51.376;6.126;2023-01-19T17:44:09;4.50;99.90
15625;DHT22;7912;51.376;6.126;2023-01-19T17:46:37;4.40;99.90
15625;DHT22;7912;51.376;6.126;2023-01-19T17:49:06;4.40;99.90
15625;DHT22;7912;51.376;6.126;2023-01-19T17:51:34;4.40;99.90
15625;DHT22;7912;51.376;6.126;2023-01-19T17:54:02;4.40;99.90
15625;DHT22;7912;51.376;6.126;2023-01-19T17:56:31;4.40;99.90
15625;DHT22;7912;51.376;6.126;2023-01-19T17:59:04;4.40;99.90
15625;DHT22;7912;51.376;6.126;2023-01-19T18:01:35;4.50;99.90
15625;DHT22;7912;51.376;6.126;2023-01-19T18:04:07;4.50;99.90
15625;DHT22;7912;51.376;6.126;2023-01-19T18:06:36;4.50;99.90
15625;DHT22;7912;51.376;6.126;2023-01-19T18:09:05;4.50;99.90
15625;DHT22;7912;51.376;6.126;2023-01-19T18:11:33;4.50;99.90
15625;DHT22;7912;51.376;6.126;2023-01-19T18:14:01;4.50;99.90
15625;DHT22;7912;51.376;6.126;2023-01-19T18:16:29;4.40;99.90
15625;DHT22;7912;51.376;6.126;2023-01-19T18:18:58;4.40;99.90
15625;DHT22;7912;51.376;6.126;2023-01-19T18:21:28;4.40;99.90
15625;DHT22;7912;51.376;6.126;2023-01-19T18:24:02;4.40;99.90
15625;DHT22;7912;51.376;6.126;2023-01-19T18:26:33;4.40;99.90
15625;DHT22;7912;51.376;6.126;2023-01-19T18:29:01;4.40;99.90
15625;DHT22;7912;51.376;6.126;2023-01-19T18:31:29;4.40;99.90
15625;DHT22;7912;51.376;6.126;2023-01-19T18:33:59;4.40;99.90
15625;DHT22;7912;51.376;6.126;2023-01-19T18:36:27;4.40;99.90
15625;DHT22;7912;51.376;6.126;2023-01-19T18:39:00;4.40;99.90
15625;DHT22;7912;51.376;6.126;2023-01-19T18:41:28;4.30;99.90
15625;DHT22;7912;51.376;6.126;2023-01-19T18:43:58;4.30;99.90
15625;DHT22;7912;51.376;6.126;2023-01-19T18:46:26;4.30;99.90
15625;DHT22;7912;51.376;6.126;2023-01-19T18:48:54;4.30;99.90
15625;DHT22;7912;51.376;6.126;2023-01-19T18:51:22;4.30;99.90
15625;DHT22;7912;51.376;6.126;2023-01-19T18:53:49;4.20;99.90
15625;DHT22;7912;51.376;6.126;2023-01-19T18:56:17;4.20;99.90
15625;DHT22;7912;51.376;6.126;2023-01-19T18:58:48;4.20;99.90
15625;DHT22;7912;51.376;6.126;2023-01-19T19:01:26;4.10;99.90
15625;DHT22;7912;51.376;6.126;2023-01-19T19:04:04;4.10;99.90
15625;DHT22;7912;51.376;6.126;2023-01-19T19:06:39;4.10;99.90
15625;DHT22;7912;51.376;6.126;2023-01-19T19:09:08;4.00;99.90
15625;DHT22;7912;51.376;6.126;2023-01-19T19:11:58;4.00;99.90
15625;DHT22;7912;51.376;6.126;2023-01-19T19:14:46;4.00;99.90
15625;DHT22;7912;51.376;6.126;2023-01-19T19:17:16;3.90;99.90
15625;DHT22;7912;51.376;6.126;2023-01-19T19:19:48;3.90;99.90
15625;DHT22;7912;51.376;6.126;2023-01-19T19:22:17;3.90;99.90
15625;DHT22;7912;51.376;6.126;2023-01-19T19:24:44;3.80;99.90
15625;DHT22;7912;51.376;6.126;2023-01-19T19:27:19;3.80;99.90
15625;DHT22;7912;51.376;6.126;2023-01-19T19:29:49;3.70;99.90
15625;DHT22;7912;51.376;6.126;2023-01-19T19:32:17;3.70;99.90
15625;DHT22;7912;51.376;6.126;2023-01-19T19:34:50;3.70;99.90
15625;DHT22;7912;51.376;6.126;2023-01-19T19:37:24;3.70;99.90
15625;DHT22;7912;51.376;6.126;2023-01-19T19:39:52;3.60;99.90
15625;DHT22;7912;51.376;6.126;2023-01-19T19:42:23;3.60;99.90
15625;DHT22;7912;51.376;6.126;2023-01-19T19:44:50;3.60;99.90
15625;DHT22;7912;51.376;6.126;2023-01-19T19:47:21;3.60;99.90
15625;DHT22;7912;51.376;6.126;2023-01-19T19:49:51;3.50;99.90
15625;DHT22;7912;51.376;6.126;2023-01-19T19:52:20;3.50;99.90
15625;DHT22;7912;51.376;6.126;2023-01-19T19:54:48;3.40;99.90
15625;DHT22;7912;51.376;6.126;2023-01-19T19:57:16;3.40;99.90
15625;DHT22;7912;51.376;6.126;2023-01-19T19:59:44;3.40;99.90
15625;DHT22;7912;51.376;6.126;2023-01-19T20:02:12;3.30;99.90
15625;DHT22;7912;51.376;6.126;2023-01-19T20:04:44;3.30;99.90
15625;DHT22;7912;51.376;6.126;2023-01-19T20:07:15;3.30;99.90
15625;DHT22;7912;51.376;6.126;2023-01-19T20:09:44;3.30;99.90
15625;DHT22;7912;51.376;6.126;2023-01-19T20:12:13;3.30;99.90
15625;DHT22;7912;51.376;6.126;2023-01-19T20:14:46;3.30;99.90
15625;DHT22;7912;51.376;6.126;2023-01-19T20:17:23;3.20;99.90
15625;DHT22;7912;51.376;6.126;2023-01-19T20:19:51;3.20;99.90
15625;DHT22;7912;51.376;6.126;2023-01-19T20:22:25;3.20;99.90
15625;DHT22;7912;51.376;6.126;2023-01-19T20:25:02;3.20;99.90
15625;DHT22;7912;51.376;6.126;2023-01-19T20:27:30;3.20;99.90
15625;DHT22;7912;51.376;6.126;2023-01-19T20:30:01;3.20;99.90
15625;DHT22;7912;51.376;6.126;2023-01-19T20:32:32;3.10;99.90
15625;DHT22;7912;51.376;6.126;2023-01-19T20:35:03;3.10;99.90
15625;DHT22;7912;51.376;6.126;2023-01-19T20:37:31;3.10;99.90
15625;DHT22;7912;51.376;6.126;2023-01-19T20:40:00;3.10;99.90
15625;DHT22;7912;51.376;6.126;2023-01-19T20:42:28;3.10;99.90
15625;DHT22;7912;51.376;6.126;2023-01-19T20:44:56;3.00;99.90
15625;DHT22;7912;51.376;6.126;2023-01-19T20:47:24;3.00;99.90
15625;DHT22;7912;51.376;6.126;2023-01-19T20:49:52;3.00;99.90
15625;DHT22;7912;51.376;6.126;2023-01-19T20:52:20;3.00;99.90
15625;DHT22;7912;51.376;6.126;2023-01-19T20:54:48;3.00;99.90
15625;DHT22;7912;51.376;6.126;2023-01-19T20:57:18;3.00;99.90
15625;DHT22;7912;51.376;6.126;2023-01-19T20:59:45;3.00;99.90
15625;DHT22;7912;51.376;6.126;2023-01-19T21:02:12;3.00;99.90
15625;DHT22;7912;51.376;6.126;2023-01-19T21:04:42;3.00;99.90
15625;DHT22;7912;51.376;6.126;2023-01-19T21:07:09;2.90;99.90
15625;DHT22;7912;51.376;6.126;2023-01-19T21:09:37;2.90;99.90
15625;DHT22;7912;51.376;6.126;2023-01-19T21:12:06;2.90;99.90
15625;DHT22;7912;51.376;6.126;2023-01-19T21:14:35;2.90;99.90
15625;DHT22;7912;51.376;6.126;2023-01-19T21:17:03;2.90;99.90
15625;DHT22;7912;51.376;6.126;2023-01-19T21:19:31;2.90;99.90
15625;DHT22;7912;51.376;6.126;2023-01-19T21:21:58;2.90;99.90
15625;DHT22;7912;51.376;6.126;2023-01-19T21:24:26;2.90;99.90
15625;DHT22;7912;51.376;6.126;2023-01-19T21:26:55;2.90;99.90
15625;DHT22;7912;51.376;6.126;2023-01-19T21:29:22;2.80;99.90
15625;DHT22;7912;51.376;6.126;2023-01-19T21:31:49;2.80;99.90
15625;DHT22;7912;51.376;6.126;2023-01-19T21:34:17;2.80;99.90
15625;DHT22;7912;51.376;6.126;2023-01-19T21:36:45;2.80;99.90
15625;DHT22;7912;51.376;6.126;2023-01-19T21:39:12;2.80;99.90
15625;DHT22;7912;51.376;6.126;2023-01-19T21:41:43;2.70;99.90
15625;DHT22;7912;51.376;6.126;2023-01-19T21:44:14;2.70;99.90
15625;DHT22;7912;51.376;6.126;2023-01-19T21:46:41;2.70;99.90
15625;DHT22;7912;51.376;6.126;2023-01-19T21:49:16;2.70;99.90
15625;DHT22;7912;51.376;6.126;2023-01-19T21:51:45;2.70;99.90
15625;DHT22;7912;51.376;6.126;2023-01-19T21:54:21;2.70;99.90
15625;DHT22;7912;51.376;6.126;2023-01-19T21:56:54;2.70;99.90
15625;DHT22;7912;51.376;6.126;2023-01-19T21:59:30;2.70;99.90
15625;DHT22;7912;51.376;6.126;2023-01-19T22:02:03;2.70;99.90
15625;DHT22;7912;51.376;6.126;2023-01-19T22:04:34;2.70;99.90
15625;DHT22;7912;51.376;6.126;2023-01-19T22:07:01;2.70;99.90
15625;DHT22;7912;51.376;6.126;2023-01-19T22:09:35;2.70;99.90
15625;DHT22;7912;51.376;6.126;2023-01-19T22:12:05;2.70;99.90
15625;DHT22;7912;51.376;6.126;2023-01-19T22:14:42;2.70;99.90
15625;DHT22;7912;51.376;6.126;2023-01-19T22:17:12;2.70;99.90
15625;DHT22;7912;51.376;6.126;2023-01-19T22:19:46;2.70;99.90
15625;DHT22;7912;51.376;6.126;2023-01-19T22:22:18;2.70;99.90
15625;DHT22;7912;51.376;6.126;2023-01-19T22:24:51;2.80;99.90
15625;DHT22;7912;51.376;6.126;2023-01-19T22:27:20;2.80;99.90
15625;DHT22;7912;51.376;6.126;2023-01-19T22:29:48;2.80;99.90
15625;DHT22;7912;51.376;6.126;2023-01-19T22:32:17;2.80;99.90
15625;DHT22;7912;51.376;6.126;2023-01-19T22:34:48;2.90;99.90
15625;DHT22;7912;51.376;6.126;2023-01-19T22:37:17;2.90;99.90
15625;DHT22;7912;51.376;6.126;2023-01-19T22:39:46;2.90;99.90
15625;DHT22;7912;51.376;6.126;2023-01-19T22:42:14;3.00;99.90
15625;DHT22;7912;51.376;6.126;2023-01-19T22:44:46;3.00;99.90
15625;DHT22;7912;51.376;6.126;2023-01-19T22:47:22;3.10;99.90
15625;DHT22;7912;51.376;6.126;2023-01-19T22:49:49;3.10;99.90
15625;DHT22;7912;51.376;6.126;2023-01-19T22:52:17;3.20;99.90
15625;DHT22;7912;51.376;6.126;2023-01-19T22:54:44;3.20;99.90
15625;DHT22;7912;51.376;6.126;2023-01-19T22:57:14;3.30;99.90
15625;DHT22;7912;51.376;6.126;2023-01-19T22:59:44;3.30;99.90
15625;DHT22;7912;51.376;6.126;2023-01-19T23:02:13;3.30;99.90
15625;DHT22;7912;51.376;6.126;2023-01-19T23:04:41;3.40;99.90
15625;DHT22;7912;51.376;6.126;2023-01-19T23:07:10;3.40;99.90
15625;DHT22;7912;51.376;6.126;2023-01-19T23:09:39;3.40;99.90
15625;DHT22;7912;51.376;6.126;2023-01-19T23:12:08;3.40;99.90
15625;DHT22;7912;51.376;6.126;2023-01-19T23:14:38;3.50;99.90
15625;DHT22;7912;51.376;6.126;2023-01-19T23:17:06;3.50;99.90
15625;DHT22;7912;51.376;6.126;2023-01-19T23:19:36;3.60;99.90
15625;DHT22;7912;51.376;6.126;2023-01-19T23:22:06;3.60;99.90
15625;DHT22;7912;51.376;6.126;2023-01-19T23:24:39;3.60;99.90
15625;DHT22;7912;51.376;6.126;2023-01-19T23:27:12;3.60;99.90
15625;DHT22;7912;51.376;6.126;2023-01-19T23:29:40;3.70;99.90
15625;DHT22;7912;51.376;6.126;2023-01-19T23:32:15;3.70;99.90
15625;DHT22;7912;51.376;6.126;2023-01-19T23:34:44;3.80;99.90
15625;DHT22;7912;51.376;6.126;2023-01-19T23:37:12;3.80;99.90
15625;DHT22;7912;51.376;6.126;2023-01-19T23:39:43;3.80;99.90
15625;DHT22;7912;51.376;6.126;2023-01-19T23:42:17;3.80;99.90
15625;DHT22;7912;51.376;6.126;2023-01-19T23:44:54;3.90;99.90
15625;DHT22;7912;51.376;6.126;2023-01-19T23:47:35;3.90;99.90
15625;DHT22;7912;51.376;6.126;2023-01-19T23:50:04;3.90;99.90
15625;DHT22;7912;51.376;6.126;2023-01-19T23:52:35;4.00;99.90
15625;DHT22;7912;51.376;6.126;2023-01-19T23:55:06;4.00;99.90
15625;DHT22;7912;51.376;6.126;2023-01-19T23:57:47;4.00;99.90
